createdAt,value
2019-06-07T00:01:36.936Z,13.13
2019-06-07T00:04:00.805Z,13.15
2019-06-07T00:06:26.057Z,13.16
2019-06-07T00:08:52.449Z,13.16
2019-06-07T00:11:19.944Z,13.16
2019-06-07T00:13:41.525Z,13.14
2019-06-07T00:16:08.636Z,13.07
2019-06-07T00:18:33.481Z,12.96
2019-06-07T00:20:59.363Z,12.98
2019-06-07T00:23:25.050Z,13.07
2019-06-07T00:25:52.389Z,13.16
2019-06-07T00:28:18.779Z,13.22
2019-06-07T00:30:51.543Z,13.18
2019-06-07T00:33:11.022Z,13.09
2019-06-07T00:35:34.190Z,12.99
2019-06-07T00:37:57.788Z,13.07
2019-06-07T00:40:31.584Z,13.11
2019-06-07T00:42:47.942Z,13.19
2019-06-07T00:45:13.868Z,13.28
2019-06-07T00:47:37.164Z,13.33
2019-06-07T00:50:00.736Z,13.29
2019-06-07T00:53:11.496Z,13.25
2019-06-07T00:54:49.629Z,13.29
2019-06-07T00:57:16.641Z,13.25
2019-06-07T00:59:38.513Z,13.26
2019-06-07T01:02:02.186Z,13.29
2019-06-07T01:04:27.373Z,13.00
2019-06-07T01:06:52.128Z,12.82
2019-06-07T01:09:20.287Z,12.79
2019-06-07T01:11:45.403Z,12.88
2019-06-07T01:14:11.314Z,12.98
2019-06-07T01:16:55.614Z,13.03
2019-06-07T01:19:05.683Z,13.09
2019-06-07T01:21:31.771Z,13.17
2019-06-07T01:24:11.538Z,13.23
2019-06-07T01:26:26.945Z,13.26
2019-06-07T01:28:50.678Z,13.26
2019-06-07T01:31:14.304Z,13.26
2019-06-07T01:33:50.223Z,13.19
2019-06-07T01:36:03.208Z,13.10
2019-06-07T01:38:26.946Z,13.01
2019-06-07T01:40:50.544Z,12.87
2019-06-07T01:43:17.059Z,12.91
2019-06-07T01:45:41.946Z,12.95
2019-06-07T01:48:06.869Z,12.83
2019-06-07T01:50:31.832Z,12.84
2019-06-07T01:52:56.780Z,12.79
2019-06-07T01:55:23.684Z,12.64
2019-06-07T01:57:48.572Z,12.55
2019-06-07T02:00:17.371Z,12.52
2019-06-07T02:02:42.898Z,12.61
2019-06-07T02:05:07.051Z,12.42
2019-06-07T02:07:33.236Z,12.44
2019-06-07T02:09:55.988Z,12.43
2019-06-07T02:12:28.013Z,12.40
2019-06-07T02:14:46.683Z,12.53
2019-06-07T02:17:11.514Z,12.54
2019-06-07T02:19:37.272Z,12.56
2019-06-07T02:22:02.513Z,12.66
2019-06-07T02:24:29.588Z,12.66
2019-06-07T02:26:53.844Z,12.83
2019-06-07T02:29:28.176Z,12.75
2019-06-07T02:31:54.749Z,12.70
2019-06-07T02:34:19.228Z,12.59
2019-06-07T02:36:42.757Z,12.55
2019-06-07T02:39:07.841Z,12.55
2019-06-07T02:41:38.563Z,12.49
2019-06-07T02:43:57.686Z,12.52
2019-06-07T02:46:35.308Z,12.57
2019-06-07T02:48:50.491Z,12.52
2019-06-07T02:51:14.202Z,12.58
2019-06-07T02:53:40.285Z,12.60
2019-06-07T02:58:32.420Z,12.58
2019-06-07T03:01:06.988Z,12.57
2019-06-07T03:03:22.322Z,12.52
2019-06-07T03:05:47.780Z,12.49
2019-06-07T03:08:14.275Z,12.49
2019-06-07T03:10:42.043Z,12.54
2019-06-07T03:13:09.799Z,12.61
2019-06-07T03:15:45.769Z,12.68
2019-06-07T03:18:11.106Z,12.67
2019-06-07T03:20:36.804Z,12.63
2019-06-07T03:23:01.936Z,12.60
2019-06-07T03:25:30.672Z,12.64
2019-06-07T03:27:53.983Z,12.79
2019-06-07T03:32:47.733Z,13.07
2019-06-07T03:35:10.058Z,13.13
2019-06-07T03:37:37.636Z,13.22
2019-06-07T03:39:59.113Z,13.29
2019-06-07T03:42:23.736Z,13.38
2019-06-07T03:44:47.312Z,13.28
2019-06-07T03:47:10.867Z,13.11
2019-06-07T03:49:37.447Z,12.97
2019-06-07T03:52:01.005Z,13.01
2019-06-07T03:54:27.245Z,13.14
2019-06-07T03:56:52.143Z,13.23
2019-06-07T03:59:16.065Z,13.17
2019-06-07T04:01:41.130Z,13.10
2019-06-07T04:04:05.158Z,13.07
2019-06-07T04:06:31.026Z,13.07
2019-06-07T04:08:54.063Z,13.12
2019-06-07T04:11:17.687Z,13.02
2019-06-07T04:13:42.750Z,13.19
2019-06-07T04:16:07.490Z,13.34
2019-06-07T04:18:33.048Z,13.37
2019-06-07T04:20:59.453Z,13.31
2019-06-07T04:23:29.900Z,13.38
2019-06-07T04:25:51.252Z,13.49
2019-06-07T04:29:13.866Z,13.62
2019-06-07T04:30:50.513Z,13.67
2019-06-07T04:33:15.613Z,13.68
2019-06-07T04:35:42.872Z,13.77
2019-06-07T04:38:06.160Z,13.90
2019-06-07T04:40:30.728Z,13.71
2019-06-07T04:42:55.832Z,13.64
2019-06-07T04:45:33.633Z,13.70
2019-06-07T04:47:46.503Z,13.77
2019-06-07T04:50:10.152Z,13.72
2019-06-07T04:52:39.895Z,13.55
2019-06-07T04:55:00.039Z,13.51
2019-06-07T04:57:24.830Z,13.56
2019-06-07T05:00:22.648Z,13.60
2019-06-07T05:02:16.846Z,13.60
2019-06-07T05:04:43.999Z,13.59
2019-06-07T05:07:09.343Z,13.57
2019-06-07T05:09:37.601Z,13.50
2019-06-07T05:12:01.889Z,13.61
2019-06-07T05:14:28.329Z,13.68
2019-06-07T05:16:54.440Z,13.75
2019-06-07T05:19:18.169Z,13.87
2019-06-07T05:22:01.397Z,13.93
2019-06-07T05:24:10.286Z,13.74
2019-06-07T05:26:35.906Z,13.78
2019-06-07T05:28:59.756Z,13.95
2019-06-07T05:31:23.331Z,14.00
2019-06-07T05:33:46.889Z,13.94
2019-06-07T05:36:10.560Z,13.97
2019-06-07T05:38:41.078Z,13.97
2019-06-07T05:41:05.373Z,14.13
2019-06-07T05:43:35.016Z,13.99
2019-06-07T05:45:57.763Z,13.93
2019-06-07T05:48:26.790Z,14.03
2019-06-07T05:50:56.808Z,13.92
2019-06-07T05:53:17.109Z,13.90
2019-06-07T05:55:44.058Z,14.02
2019-06-07T05:58:08.228Z,14.11
2019-06-07T06:00:35.086Z,14.29
2019-06-07T06:03:05.389Z,14.43
2019-06-07T06:05:34.206Z,14.67
2019-06-07T06:07:51.188Z,14.91
2019-06-07T06:10:16.829Z,15.01
2019-06-07T06:12:49.883Z,15.09
2019-06-07T06:15:11.552Z,15.07
2019-06-07T06:17:40.913Z,14.97
2019-06-07T06:20:03.817Z,14.75
2019-06-07T06:22:32.247Z,14.58
2019-06-07T06:25:31.045Z,14.52
2019-06-07T06:28:03.355Z,14.57
2019-06-07T06:29:55.652Z,14.73
2019-06-07T06:34:53.905Z,14.72
2019-06-07T06:37:21.860Z,14.64
2019-06-07T06:39:49.776Z,14.84
2019-06-07T06:42:12.877Z,15.05
2019-06-07T06:44:40.730Z,14.87
2019-06-07T06:47:03.763Z,14.74
2019-06-07T06:49:28.875Z,14.71
2019-06-07T06:51:53.945Z,14.73
2019-06-07T06:54:39.362Z,14.96
2019-06-07T06:56:45.665Z,15.14
2019-06-07T06:59:37.597Z,15.49
2019-06-07T07:01:35.876Z,15.90
2019-06-07T07:04:12.192Z,15.54
2019-06-07T07:06:27.818Z,15.90
2019-06-07T07:08:53.445Z,15.89
2019-06-07T07:11:17.780Z,16.08
2019-06-07T07:13:44.477Z,15.74
2019-06-07T07:16:07.779Z,16.08
2019-06-07T07:18:32.103Z,16.04
2019-06-07T07:21:01.296Z,16.28
2019-06-07T07:23:27.368Z,16.35
2019-06-07T07:25:59.443Z,16.22
2019-06-07T07:28:19.943Z,16.26
2019-06-07T07:30:47.275Z,16.38
2019-06-07T07:33:11.691Z,16.49
2019-06-07T07:35:35.258Z,16.86
2019-06-07T07:37:59.912Z,16.75
2019-06-07T07:40:56.789Z,16.92
2019-06-07T07:42:56.294Z,16.87
2019-06-07T07:45:18.925Z,17.17
2019-06-07T07:48:03.229Z,16.54
2019-06-07T07:50:08.792Z,16.79
2019-06-07T07:52:32.347Z,16.96
2019-06-07T07:54:58.401Z,17.45
2019-06-07T07:57:30.795Z,17.70
2019-06-07T08:00:13.250Z,18.58
2019-06-07T08:02:23.227Z,18.43
2019-06-07T08:07:15.129Z,18.64
2019-06-07T08:09:39.694Z,19.30
2019-06-07T08:12:03.425Z,19.60
2019-06-07T08:14:27.112Z,19.92
2019-06-07T08:16:51.898Z,20.27
2019-06-07T08:19:15.634Z,20.69
2019-06-07T08:21:39.156Z,20.77
2019-06-07T08:24:05.141Z,20.31
2019-06-07T08:26:29.138Z,19.56
2019-06-07T08:28:58.391Z,19.88
2019-06-07T08:31:21.716Z,20.52
2019-06-07T08:33:47.760Z,20.04
2019-06-07T08:36:21.865Z,20.04
2019-06-07T08:38:48.180Z,20.17
2019-06-07T08:41:11.682Z,19.85
2019-06-07T08:43:33.343Z,20.17
2019-06-07T08:46:07.490Z,20.44
2019-06-07T08:48:30.545Z,20.80
2019-06-07T08:51:02.223Z,20.75
2019-06-07T08:53:25.979Z,21.09
2019-06-07T08:55:54.221Z,20.53
2019-06-07T08:58:18.271Z,20.05
2019-06-07T09:00:46.897Z,19.88
2019-06-07T09:03:11.280Z,20.49
2019-06-07T09:05:35.257Z,21.03
2019-06-07T09:08:25.973Z,21.24
2019-06-07T09:10:25.021Z,20.78
2019-06-07T09:12:49.015Z,20.32
2019-06-07T09:15:23.308Z,20.34
2019-06-07T09:18:29.521Z,20.58
2019-06-07T09:20:32.735Z,20.45
2019-06-07T09:22:35.217Z,20.87
2019-06-07T09:25:04.322Z,21.17
2019-06-07T09:27:25.155Z,21.34
2019-06-07T09:29:49.175Z,22.46
2019-06-07T09:32:18.233Z,22.28
2019-06-07T09:34:39.183Z,22.12
2019-06-07T09:37:54.465Z,21.61
2019-06-07T09:39:29.651Z,21.97
2019-06-07T09:41:53.589Z,21.52
2019-06-07T09:44:25.107Z,22.26
2019-06-07T09:46:43.648Z,22.19
2019-06-07T09:49:18.269Z,22.13
2019-06-07T09:51:33.863Z,22.10
2019-06-07T09:53:58.501Z,22.80
2019-06-07T09:56:23.370Z,23.32
2019-06-07T09:58:52.755Z,23.12
2019-06-07T10:01:15.128Z,23.00
2019-06-07T10:03:39.107Z,22.91
2019-06-07T10:06:08.786Z,22.53
2019-06-07T10:10:56.145Z,23.96
2019-06-07T10:13:21.558Z,24.90
2019-06-07T10:15:48.673Z,24.46
2019-06-07T10:18:13.308Z,24.60
2019-06-07T10:20:37.423Z,24.49
2019-06-07T10:23:01.709Z,24.82
2019-06-07T10:25:25.775Z,24.68
2019-06-07T10:27:50.872Z,24.39
2019-06-07T10:30:14.648Z,23.99
2019-06-07T10:32:40.664Z,23.97
2019-06-07T10:35:07.554Z,24.44
2019-06-07T10:37:31.768Z,24.70
2019-06-07T10:39:55.360Z,24.17
2019-06-07T10:42:18.924Z,25.01
2019-06-07T10:44:43.874Z,24.33
2019-06-07T10:47:08.234Z,24.87
2019-06-07T10:49:32.741Z,25.35
2019-06-07T10:51:57.561Z,25.21
2019-06-07T10:54:29.449Z,25.29
2019-06-07T10:56:46.428Z,25.28
2019-06-07T10:59:11.835Z,24.82
2019-06-07T11:01:35.260Z,25.33
2019-06-07T11:03:58.918Z,25.16
2019-06-07T11:06:23.789Z,24.87
2019-06-07T11:08:48.368Z,25.22
2019-06-07T11:11:12.274Z,25.49
2019-06-07T11:13:35.949Z,25.74
2019-06-07T11:15:59.510Z,26.71
2019-06-07T11:18:23.035Z,26.77
2019-06-07T11:20:47.421Z,27.54
2019-06-07T11:23:12.298Z,27.01
2019-06-07T11:25:36.715Z,27.00
2019-06-07T11:28:00.293Z,27.53
2019-06-07T11:30:23.974Z,26.87
2019-06-07T11:32:47.838Z,27.24
2019-06-07T11:35:14.051Z,27.49
2019-06-07T11:37:38.155Z,26.50
2019-06-07T11:40:01.834Z,26.50
2019-06-07T11:42:25.540Z,27.24
2019-06-07T11:44:56.951Z,27.95
2019-06-07T11:47:24.637Z,27.97
2019-06-07T11:49:49.798Z,28.39
2019-06-07T11:52:13.998Z,28.30
2019-06-07T11:54:37.778Z,28.41
2019-06-07T11:57:01.422Z,28.23
2019-06-07T11:59:25.873Z,28.44
2019-06-07T12:02:01.504Z,27.70
2019-06-07T12:04:34.288Z,27.61
2019-06-07T12:06:51.744Z,27.35
2019-06-07T12:09:16.978Z,27.35
2019-06-07T12:11:40.946Z,27.16
2019-06-07T12:14:05.355Z,27.89
2019-06-07T12:16:28.917Z,28.87
2019-06-07T12:18:52.547Z,29.13
2019-06-07T12:21:18.183Z,28.63
2019-06-07T12:23:42.663Z,27.67
2019-06-07T12:26:08.029Z,26.43
2019-06-07T12:28:32.630Z,26.24
2019-06-07T12:30:56.335Z,26.14
2019-06-07T12:33:20.017Z,26.46
2019-06-07T12:35:45.606Z,26.78
2019-06-07T12:38:09.650Z,27.14
2019-06-07T12:40:33.874Z,28.12
2019-06-07T12:42:57.836Z,28.62
2019-06-07T12:45:42.782Z,28.19
2019-06-07T12:47:47.111Z,28.62
2019-06-07T12:50:11.090Z,28.58
2019-06-07T12:52:34.652Z,28.55
2019-06-07T12:54:58.193Z,28.37
2019-06-07T12:57:22.155Z,29.23
2019-06-07T12:59:47.874Z,29.79
2019-06-07T13:02:11.623Z,30.24
2019-06-07T13:04:35.152Z,30.85
2019-06-07T13:07:01.794Z,30.75
2019-06-07T13:09:25.939Z,30.88
2019-06-07T13:11:49.477Z,31.58
2019-06-07T13:14:13.093Z,31.85
2019-06-07T13:16:36.696Z,30.25
2019-06-07T13:19:00.246Z,30.13
2019-06-07T13:21:24.700Z,28.80
2019-06-07T13:23:48.443Z,28.20
2019-06-07T13:26:12.133Z,27.22
2019-06-07T13:28:36.344Z,26.72
2019-06-07T13:31:02.409Z,27.25
2019-06-07T13:33:33.937Z,27.45
2019-06-07T13:35:52.607Z,28.47
2019-06-07T13:38:26.205Z,29.18
2019-06-07T13:40:49.753Z,30.54
2019-06-07T13:43:13.311Z,30.19
2019-06-07T13:45:37.094Z,29.96
2019-06-07T13:48:01.465Z,30.50
2019-06-07T13:50:26.046Z,30.84
2019-06-07T13:52:49.891Z,30.95
2019-06-07T13:55:14.277Z,30.69
2019-06-07T13:57:37.853Z,30.93
2019-06-07T14:00:09.878Z,31.53
2019-06-07T14:02:29.839Z,31.12
2019-06-07T14:04:54.042Z,30.01
2019-06-07T14:07:21.139Z,30.06
2019-06-07T14:09:46.149Z,30.57
2019-06-07T14:12:12.631Z,29.88
2019-06-07T14:14:37.504Z,29.72
2019-06-07T14:17:01.661Z,31.34
2019-06-07T14:19:26.540Z,31.42
2019-06-07T14:21:50.241Z,31.93
2019-06-07T14:24:14.005Z,32.37
2019-06-07T14:26:37.506Z,32.38
2019-06-07T14:29:01.134Z,31.89
2019-06-07T14:31:26.289Z,31.51
2019-06-07T14:33:50.026Z,33.37
2019-06-07T14:36:14.505Z,33.05
2019-06-07T14:38:39.278Z,32.49
2019-06-07T14:41:02.856Z,33.18
2019-06-07T14:43:27.580Z,32.70
2019-06-07T14:45:51.345Z,33.53
2019-06-07T14:48:16.864Z,33.14
2019-06-07T14:50:41.628Z,32.03
2019-06-07T14:53:06.561Z,31.42
2019-06-07T14:55:32.997Z,29.97
2019-06-07T14:57:59.031Z,29.59
2019-06-07T15:00:26.142Z,28.56
2019-06-07T15:02:49.802Z,28.54
2019-06-07T15:05:14.990Z,28.44
2019-06-07T15:07:40.591Z,28.29
2019-06-07T15:10:05.335Z,27.83
2019-06-07T15:12:29.349Z,27.92
2019-06-07T15:14:53.032Z,27.87
2019-06-07T15:17:18.295Z,27.98
2019-06-07T15:19:42.108Z,27.94
2019-06-07T15:22:07.075Z,27.68
2019-06-07T15:24:35.709Z,27.53
2019-06-07T15:26:59.271Z,27.95
2019-06-07T15:29:24.701Z,27.63
2019-06-07T15:31:48.418Z,27.87
2019-06-07T15:34:12.000Z,28.22
2019-06-07T15:36:36.662Z,28.03
2019-06-07T15:39:00.251Z,27.54
2019-06-07T15:41:23.775Z,27.52
2019-06-07T15:43:47.383Z,27.48
2019-06-07T15:46:11.957Z,27.62
2019-06-07T15:48:38.327Z,27.83
2019-06-07T15:51:03.445Z,28.04
2019-06-07T15:53:32.729Z,27.89
2019-06-07T15:55:54.705Z,27.79
2019-06-07T15:58:19.344Z,27.91
2019-06-07T16:00:43.419Z,27.60
2019-06-07T16:03:08.074Z,27.51
2019-06-07T16:05:38.326Z,27.31
2019-06-07T16:08:06.441Z,27.27
2019-06-07T16:10:32.542Z,27.13
2019-06-07T16:13:00.688Z,27.09
2019-06-07T16:15:25.997Z,26.98
2019-06-07T16:17:52.133Z,26.86
2019-06-07T16:20:16.240Z,27.11
2019-06-07T16:22:41.874Z,27.27
2019-06-07T16:25:06.801Z,27.08
2019-06-07T16:27:30.355Z,27.09
2019-06-07T16:29:53.938Z,27.11
2019-06-07T16:32:17.672Z,26.96
2019-06-07T16:34:41.820Z,27.14
2019-06-07T16:37:05.921Z,27.15
2019-06-07T16:39:29.568Z,27.27
2019-06-07T16:41:53.120Z,26.98
2019-06-07T16:44:16.765Z,27.01
2019-06-07T16:46:40.639Z,26.92
2019-06-07T16:49:05.361Z,26.89
2019-06-07T16:51:31.346Z,26.79
2019-06-07T16:53:57.491Z,27.90
2019-06-07T16:56:23.951Z,29.57
2019-06-07T16:58:49.048Z,30.23
2019-06-07T17:01:16.394Z,30.43
2019-06-07T17:03:43.454Z,29.96
2019-06-07T17:06:17.661Z,29.82
2019-06-07T17:08:42.128Z,29.80
2019-06-07T17:11:05.930Z,29.29
2019-06-07T17:13:33.898Z,29.29
2019-06-07T17:15:56.205Z,28.78
2019-06-07T17:18:21.847Z,29.07
2019-06-07T17:20:45.590Z,28.69
2019-06-07T17:23:09.565Z,28.84
2019-06-07T17:25:33.139Z,28.78
2019-06-07T17:27:58.232Z,28.34
2019-06-07T17:30:22.779Z,28.24
2019-06-07T17:32:55.137Z,28.49
2019-06-07T17:35:12.012Z,28.12
2019-06-07T17:37:36.758Z,27.77
2019-06-07T17:40:00.633Z,27.46
2019-06-07T17:42:27.612Z,27.14
2019-06-07T17:44:51.492Z,27.03
2019-06-07T17:47:15.697Z,26.89
2019-06-07T17:49:39.336Z,26.80
2019-06-07T17:52:13.173Z,26.52
2019-06-07T17:54:36.664Z,26.48
2019-06-07T17:57:00.347Z,26.29
2019-06-07T17:59:23.909Z,26.46
2019-06-07T18:02:07.098Z,26.36
2019-06-07T18:04:14.625Z,26.09
2019-06-07T18:06:41.331Z,26.26
2019-06-07T18:09:07.462Z,26.17
2019-06-07T18:11:32.084Z,26.14
2019-06-07T18:14:10.320Z,26.06
2019-06-07T18:16:24.945Z,25.97
2019-06-07T18:18:48.894Z,25.80
2019-06-07T18:21:12.486Z,25.73
2019-06-07T18:23:36.159Z,25.76
2019-06-07T18:26:00.102Z,25.87
2019-06-07T18:28:24.852Z,25.68
2019-06-07T18:30:48.782Z,25.62
2019-06-07T18:33:12.547Z,25.82
2019-06-07T18:35:36.410Z,25.63
2019-06-07T18:37:59.968Z,25.39
2019-06-07T18:40:25.065Z,25.17
2019-06-07T18:42:49.117Z,25.12
2019-06-07T18:45:12.896Z,24.98
2019-06-07T18:47:36.531Z,25.04
2019-06-07T18:50:00.959Z,24.95
2019-06-07T18:52:28.620Z,24.93
2019-06-07T18:54:53.080Z,24.68
2019-06-07T18:57:16.848Z,24.60
2019-06-07T18:59:40.390Z,24.63
2019-06-07T19:02:04.105Z,24.63
2019-06-07T19:04:28.907Z,24.54
2019-06-07T19:06:52.482Z,24.34
2019-06-07T19:09:16.140Z,24.28
2019-06-07T19:11:41.277Z,24.20
2019-06-07T19:14:04.983Z,24.18
2019-06-07T19:16:28.595Z,24.06
2019-06-07T19:18:52.156Z,24.07
2019-06-07T19:21:15.708Z,24.10
2019-06-07T19:23:40.786Z,24.07
2019-06-07T19:26:04.442Z,23.95
2019-06-07T19:28:29.128Z,23.87
2019-06-07T19:30:53.066Z,23.76
2019-06-07T19:33:16.754Z,23.62
2019-06-07T19:35:40.374Z,23.48
2019-06-07T19:38:04.114Z,23.35
2019-06-07T19:40:29.659Z,23.26
2019-06-07T19:42:54.135Z,23.17
2019-06-07T19:45:29.527Z,23.14
2019-06-07T19:47:54.393Z,23.11
2019-06-07T19:50:18.944Z,23.03
2019-06-07T19:52:45.645Z,22.96
2019-06-07T19:55:10.440Z,22.90
2019-06-07T19:57:34.274Z,22.68
2019-06-07T19:59:57.879Z,22.53
2019-06-07T20:02:21.464Z,22.45
2019-06-07T20:04:45.041Z,22.39
2019-06-07T20:07:08.600Z,22.30
2019-06-07T20:09:32.260Z,22.28
2019-06-07T20:11:56.437Z,22.14
2019-06-07T20:14:20.711Z,22.08
2019-06-07T20:16:44.342Z,21.93
2019-06-07T20:19:09.003Z,21.75
2019-06-07T20:21:34.459Z,21.54
2019-06-07T20:24:00.178Z,21.34
2019-06-07T20:26:23.307Z,21.20
2019-06-07T20:28:46.992Z,21.09
2019-06-07T20:31:10.536Z,20.97
2019-06-07T20:33:35.396Z,21.03
2019-06-07T20:35:58.974Z,21.11
2019-06-07T20:38:24.551Z,21.11
2019-06-07T20:40:48.849Z,21.45
2019-06-07T20:43:12.490Z,22.03
2019-06-07T20:45:36.206Z,21.54
2019-06-07T20:48:00.046Z,21.58
2019-06-07T20:50:23.549Z,21.24
2019-06-07T20:52:47.084Z,20.33
2019-06-07T20:55:12.113Z,19.50
2019-06-07T20:57:35.878Z,19.43
2019-06-07T21:00:00.953Z,18.57
2019-06-07T21:02:25.614Z,18.27
2019-06-07T21:04:49.815Z,17.52
2019-06-07T21:07:14.968Z,17.69
2019-06-07T21:09:38.649Z,17.27
2019-06-07T21:12:03.725Z,17.23
2019-06-07T21:14:27.427Z,17.24
2019-06-07T21:16:50.960Z,16.61
2019-06-07T21:19:14.603Z,16.65
2019-06-07T21:21:39.175Z,16.28
2019-06-07T21:24:02.748Z,16.08
2019-06-07T21:26:26.283Z,16.05
2019-06-07T21:28:50.047Z,16.08
2019-06-07T21:31:13.627Z,15.91
2019-06-07T21:33:37.280Z,16.31
2019-06-07T21:36:01.747Z,16.36
2019-06-07T21:38:25.397Z,15.84
2019-06-07T21:40:50.277Z,15.91
2019-06-07T21:43:16.529Z,15.65
2019-06-07T21:45:40.755Z,15.38
2019-06-07T21:48:07.120Z,15.68
2019-06-07T21:50:33.274Z,15.41
2019-06-07T21:52:56.824Z,15.27
2019-06-07T21:55:20.475Z,15.30
2019-06-07T21:57:44.017Z,15.32
2019-06-07T22:00:13.424Z,15.28
2019-06-07T22:02:37.110Z,15.73
2019-06-07T22:05:00.679Z,15.86
2019-06-07T22:07:24.325Z,15.30
2019-06-07T22:09:48.116Z,15.14
2019-06-07T22:12:12.102Z,15.22
2019-06-07T22:14:35.790Z,15.04
2019-06-07T22:17:00.463Z,15.37
2019-06-07T22:19:24.051Z,15.18
2019-06-07T22:22:01.706Z,14.98
2019-06-07T22:24:15.085Z,15.32
2019-06-07T22:26:38.844Z,15.01
2019-06-07T22:29:02.423Z,15.16
2019-06-07T22:31:26.039Z,15.44
2019-06-07T22:33:49.583Z,15.49
2019-06-07T22:36:13.290Z,15.31
2019-06-07T22:38:36.875Z,14.96
2019-06-07T22:41:02.471Z,14.92
2019-06-07T22:43:27.685Z,15.32
2019-06-07T22:45:51.314Z,15.26
2019-06-07T22:48:15.940Z,15.00
2019-06-07T22:50:42.125Z,14.70
2019-06-07T22:53:05.790Z,14.87
2019-06-07T22:55:30.323Z,14.78
2019-06-07T22:57:59.751Z,14.79
2019-06-07T23:00:24.318Z,14.57
2019-06-07T23:02:47.907Z,14.18
2019-06-07T23:05:12.796Z,14.28
2019-06-07T23:07:37.547Z,14.63
2019-06-07T23:10:01.124Z,14.41
2019-06-07T23:12:24.750Z,14.31
2019-06-07T23:14:50.026Z,14.03
2019-06-07T23:17:13.907Z,13.97
2019-06-07T23:19:37.468Z,14.09
2019-06-07T23:22:01.031Z,14.04
2019-06-07T23:24:24.711Z,13.97
2019-06-07T23:26:48.293Z,13.97
2019-06-07T23:29:12.491Z,14.45
2019-06-07T23:31:36.102Z,13.99
2019-06-07T23:33:59.642Z,13.97
2019-06-07T23:36:23.337Z,13.86
2019-06-07T23:38:51.950Z,13.81
2019-06-07T23:41:15.761Z,13.74
2019-06-07T23:43:39.341Z,13.76
2019-06-07T23:46:03.275Z,13.84
2019-06-07T23:48:27.779Z,13.58
2019-06-07T23:50:53.476Z,13.54
2019-06-07T23:53:19.904Z,13.50
2019-06-07T23:55:46.563Z,13.74
2019-06-07T23:58:13.861Z,13.67
